Time;durP1;ratioP1;P1;durP2;ratioP2;P2;SDS_P1;SDS_P2;PMS_P1;PMS_P2;Temp;Humidity;BMP_temperature;BMP_pressure;BME280_temperature;BME280_humidity;BME280_pressure;Samples;Min_cycle;Max_cycle;Signal;HPM_P1;HPM_P2
2022/12/31 00:01:03;;;;;;;19.17;3.58;;;;;;;;;;5015322;28;20101;-95
2022/12/31 00:03:29;;;;;;;17.13;3.13;;;;;;;;;;5015518;28;20092;-95
2022/12/31 00:05:54;;;;;;;17.50;2.20;;;;;;;;;;5015044;28;20479;-95
2022/12/31 00:08:19;;;;;;;21.00;2.10;;;;;;;;;;5015319;28;20022;-95
2022/12/31 00:10:45;;;;;;;17.80;2.25;;;;;;;;;;5014959;28;20464;-94
2022/12/31 00:13:11;;;;;;;17.35;3.70;;;;;;;;;;5014851;28;20575;-94
2022/12/31 00:15:37;;;;;;;31.00;3.50;;;;;;;;;;5014968;28;20029;-95
2022/12/31 00:18:02;;;;;;;22.00;2.35;;;;;;;;;;5014943;28;20029;-94
2022/12/31 00:20:27;;;;;;;25.48;3.67;;;;;;;;;;5014812;28;20487;-95
2022/12/31 00:22:53;;;;;;;26.05;3.08;;;;;;;;;;5014324;28;20014;-96
2022/12/31 00:25:18;;;;;;;24.05;2.47;;;;;;;;;;5014268;28;20076;-95
2022/12/31 00:27:43;;;;;;;19.63;3.20;;;;;;;;;;5014449;28;20037;-94
2022/12/31 00:30:09;;;;;;;13.70;2.33;;;;;;;;;;5014459;28;20018;-96
2022/12/31 00:32:34;;;;;;;26.40;4.35;;;;;;;;;;5014279;28;20125;-96
2022/12/31 00:35:00;;;;;;;24.00;4.18;;;;;;;;;;5014428;28;20022;-95
2022/12/31 00:37:25;;;;;;;21.20;3.00;;;;;;;;;;5014369;28;20022;-94
2022/12/31 00:39:50;;;;;;;25.55;4.05;;;;;;;;;;5014691;28;20484;-95
2022/12/31 00:42:16;;;;;;;21.65;3.25;;;;;;;;;;5014119;28;20021;-95
2022/12/31 00:44:41;;;;;;;25.35;3.30;;;;;;;;;;5014008;28;20417;-96
2022/12/31 00:47:06;;;;;;;20.77;3.75;;;;;;;;;;5014303;28;20025;-95
2022/12/31 00:49:32;;;;;;;29.42;3.47;;;;;;;;;;5014226;28;20022;-96
2022/12/31 00:51:57;;;;;;;21.33;2.85;;;;;;;;;;5013985;28;20030;-94
2022/12/31 00:54:23;;;;;;;20.02;4.43;;;;;;;;;;5014253;28;20018;-96
2022/12/31 00:56:48;;;;;;;26.05;3.17;;;;;;;;;;5014739;28;20010;-96
2022/12/31 01:29:04;;;;;;;31.65;2.88;;;;;;;;;;5189248;23;20062;-96
2022/12/31 01:31:33;;;;;;;21.48;2.97;;;;;;;;;;5016036;28;20059;-95
2022/12/31 01:39:40;;;;;;;9.57;1.50;;;;;;;;;;5041774;28;20049;-96
2022/12/31 01:42:08;;;;;;;14.70;1.70;;;;;;;;;;5040220;28;20427;-96
2022/12/31 01:44:44;;;;;;;16.05;2.03;;;;;;;;;;5043004;28;20054;-96
2022/12/31 01:47:14;;;;;;;13.18;1.60;;;;;;;;;;5021519;28;20030;-95
2022/12/31 01:50:05;;;;;;;25.67;2.25;;;;;;;;;;5017467;28;20022;-96
2022/12/31 01:52:33;;;;;;;14.43;1.58;;;;;;;;;;5017601;28;20041;-96
2022/12/31 01:55:05;;;;;;;14.30;1.85;;;;;;;;;;5015019;28;20557;-96
2022/12/31 01:57:36;;;;;;;11.10;1.48;;;;;;;;;;5015136;28;20018;-96
2022/12/31 02:00:02;;;;;;;19.55;2.00;;;;;;;;;;5015386;28;20117;-96
2022/12/31 02:02:28;;;;;;;20.02;2.20;;;;;;;;;;5014936;28;20500;-96
2022/12/31 02:04:54;;;;;;;17.75;0.95;;;;;;;;;;5014648;28;20026;-96
2022/12/31 02:07:20;;;;;;;21.52;2.13;;;;;;;;;;5014375;28;20041;-96
2022/12/31 02:09:45;;;;;;;17.02;1.35;;;;;;;;;;5015890;28;20109;-96
2022/12/31 02:12:11;;;;;;;12.50;1.63;;;;;;;;;;5014731;28;20026;-95
2022/12/31 02:14:38;;;;;;;12.20;1.05;;;;;;;;;;5013700;28;20033;-96
2022/12/31 02:17:22;;;;;;;12.52;1.10;;;;;;;;;;5012946;28;20025;-95
2022/12/31 02:19:54;;;;;;;14.32;1.90;;;;;;;;;;5019574;28;20022;-95
2022/12/31 02:22:23;;;;;;;8.98;1.13;;;;;;;;;;5013220;28;20026;-96
2022/12/31 02:24:51;;;;;;;7.45;0.80;;;;;;;;;;5013533;28;20478;-96
2022/12/31 02:27:26;;;;;;;11.77;0.90;;;;;;;;;;5013202;28;20064;-95
2022/12/31 02:30:01;;;;;;;5.13;0.85;;;;;;;;;;5012660;28;20022;-96
2022/12/31 02:32:36;;;;;;;13.02;0.93;;;;;;;;;;5012528;28;20033;-96
2022/12/31 02:35:23;;;;;;;11.35;1.40;;;;;;;;;;5013510;28;20278;-96
2022/12/31 02:37:50;;;;;;;5.95;0.98;;;;;;;;;;5014226;28;20108;-95
2022/12/31 02:40:17;;;;;;;10.82;1.50;;;;;;;;;;5014076;28;20017;-96
2022/12/31 02:42:43;;;;;;;4.93;0.70;;;;;;;;;;5013250;28;20088;-96
2022/12/31 02:45:10;;;;;;;3.78;0.70;;;;;;;;;;5012665;28;20014;-95
2022/12/31 02:47:54;;;;;;;5.30;0.75;;;;;;;;;;5012636;28;20026;-96
2022/12/31 02:50:22;;;;;;;7.18;0.80;;;;;;;;;;5012275;28;20026;-96
2022/12/31 02:53:04;;;;;;;5.63;0.50;;;;;;;;;;5012404;28;20037;-95
2022/12/31 02:55:36;;;;;;;5.05;0.88;;;;;;;;;;5013050;28;20032;-96
2022/12/31 02:58:18;;;;;;;5.43;0.57;;;;;;;;;;5013034;28;20026;-96
2022/12/31 03:03:46;;;;;;;4.38;0.50;;;;;;;;;;5012871;28;20026;-96
2022/12/31 03:06:12;;;;;;;4.70;0.30;;;;;;;;;;5013367;28;20489;-96
2022/12/31 03:09:11;;;;;;;2.40;0.55;;;;;;;;;;5013380;28;20029;-96
2022/12/31 03:14:10;;;;;;;2.10;0.30;;;;;;;;;;5014425;28;20037;-95
2022/12/31 03:16:35;;;;;;;2.15;0.40;;;;;;;;;;5016259;28;20014;-96
2022/12/31 03:27:12;;;;;;;3.38;0.38;;;;;;;;;;5017094;28;20037;-96
2022/12/31 03:29:38;;;;;;;4.90;0.40;;;;;;;;;;5015914;28;20014;-96
2022/12/31 03:32:03;;;;;;;2.90;0.73;;;;;;;;;;5016089;28;20028;-96
2022/12/31 03:34:29;;;;;;;2.47;0.40;;;;;;;;;;5015722;28;20034;-96
2022/12/31 03:36:54;;;;;;;1.45;0.40;;;;;;;;;;5015689;28;20064;-96
2022/12/31 03:39:19;;;;;;;3.95;0.60;;;;;;;;;;5015350;28;20191;-96
2022/12/31 03:41:45;;;;;;;2.15;0.80;;;;;;;;;;5015887;28;20068;-96
2022/12/31 03:44:10;;;;;;;3.38;1.05;;;;;;;;;;5016794;28;20076;-96
2022/12/31 03:46:35;;;;;;;6.70;0.75;;;;;;;;;;5015922;28;20026;-95
2022/12/31 03:49:01;;;;;;;3.05;0.63;;;;;;;;;;5015687;28;20088;-95
2022/12/31 03:51:26;;;;;;;3.30;0.57;;;;;;;;;;5015880;28;20022;-96
2022/12/31 03:53:51;;;;;;;4.25;0.80;;;;;;;;;;5015626;28;20049;-96
2022/12/31 03:56:16;;;;;;;6.60;0.60;;;;;;;;;;5015477;28;20053;-96
2022/12/31 03:58:42;;;;;;;9.65;1.00;;;;;;;;;;5015328;28;20026;-95
2022/12/31 04:01:07;;;;;;;11.85;2.38;;;;;;;;;;5015306;28;20014;-96
2022/12/31 04:03:33;;;;;;;6.18;1.13;;;;;;;;;;5015331;28;20022;-96
2022/12/31 04:06:01;;;;;;;10.13;1.30;;;;;;;;;;5015799;28;20026;-96
2022/12/31 04:08:29;;;;;;;13.38;2.20;;;;;;;;;;5020261;28;20018;-96
2022/12/31 04:10:57;;;;;;;7.47;1.92;;;;;;;;;;5020685;28;20026;-96
2022/12/31 04:13:23;;;;;;;12.65;2.50;;;;;;;;;;5017274;28;20067;-96
2022/12/31 04:15:51;;;;;;;13.23;1.40;;;;;;;;;;5023183;28;20018;-96
2022/12/31 04:18:35;;;;;;;17.75;1.75;;;;;;;;;;5024837;28;20476;-96
2022/12/31 04:21:11;;;;;;;13.15;1.48;;;;;;;;;;5029201;28;20018;-96
2022/12/31 04:24:01;;;;;;;;;;;;;;;;;;;;;
2022/12/31 04:26:36;;;;;;;20.45;2.30;;;;;;;;;;5029555;28;20022;-96
2022/12/31 04:29:13;;;;;;;18.63;2.55;;;;;;;;;;5029878;28;20025;-96
2022/12/31 04:35:08;;;;;;;;;;;;;;;;;;;;;
2022/12/31 04:47:40;;;;;;;17.45;1.85;;;;;;;;;;5021090;28;20106;-96
2022/12/31 05:41:52;;;;;;;;;;;;;;;;;;;;;
2022/12/31 05:44:30;;;;;;;35.70;4.05;;;;;;;;;;4970998;29;20067;-96
2022/12/31 05:47:05;;;;;;;24.73;3.67;;;;;;;;;;4949431;29;20027;-96
2022/12/31 05:49:42;;;;;;;;;;;;;;;;;;;;;
2022/12/31 05:52:08;;;;;;;21.05;3.58;;;;;;;;;;4977198;28;20127;-96
2022/12/31 05:54:53;;;;;;;17.00;2.65;;;;;;;;;;4964031;28;20054;-96
2022/12/31 05:57:19;;;;;;;25.00;3.20;;;;;;;;;;4965865;28;20118;-96
2022/12/31 05:59:54;;;;;;;28.58;4.00;;;;;;;;;;4997417;28;20054;-96
2022/12/31 06:02:20;;;;;;;26.90;4.10;;;;;;;;;;4994714;28;20072;-96
2022/12/31 06:04:56;;;;;;;26.33;3.58;;;;;;;;;;4993574;28;20050;-96
2022/12/31 06:07:21;;;;;;;25.55;3.65;;;;;;;;;;4993749;28;20038;-95
2022/12/31 06:09:49;;;;;;;23.73;3.83;;;;;;;;;;4993681;28;20033;-96
2022/12/31 06:12:14;;;;;;;32.05;4.68;;;;;;;;;;4994098;28;20039;-96
2022/12/31 06:14:39;;;;;;;20.80;3.72;;;;;;;;;;4993945;28;20374;-96
2022/12/31 06:17:05;;;;;;;28.40;3.47;;;;;;;;;;4993427;28;20029;-95
2022/12/31 06:19:30;;;;;;;20.50;3.70;;;;;;;;;;4993457;28;20469;-96
2022/12/31 06:21:56;;;;;;;25.15;4.85;;;;;;;;;;4993993;28;20113;-96
2022/12/31 06:24:24;;;;;;;30.70;4.78;;;;;;;;;;4993550;28;20018;-96
2022/12/31 06:26:49;;;;;;;27.48;4.95;;;;;;;;;;4993893;28;20033;-94
2022/12/31 06:29:14;;;;;;;32.85;4.85;;;;;;;;;;4994354;28;20018;-95
2022/12/31 06:31:42;;;;;;;35.42;5.22;;;;;;;;;;4994923;28;20039;-96
2022/12/31 06:34:08;;;;;;;30.17;4.28;;;;;;;;;;4993117;28;20022;-95
2022/12/31 06:36:33;;;;;;;28.63;5.18;;;;;;;;;;4993599;28;20361;-96
2022/12/31 06:38:58;;;;;;;34.95;5.00;;;;;;;;;;4993225;28;20026;-96
2022/12/31 06:41:24;;;;;;;43.45;6.82;;;;;;;;;;4993654;28;20037;-96
2022/12/31 06:43:49;;;;;;;31.50;5.93;;;;;;;;;;4992524;28;20029;-96
2022/12/31 06:46:16;;;;;;;38.05;5.88;;;;;;;;;;4992786;28;20077;-95
2022/12/31 06:48:43;;;;;;;31.02;5.57;;;;;;;;;;4992836;28;20034;-96
2022/12/31 06:51:10;;;;;;;40.75;5.93;;;;;;;;;;4992491;28;20019;-96
2022/12/31 06:53:36;;;;;;;36.92;5.20;;;;;;;;;;4992610;28;20031;-96
2022/12/31 06:56:06;;;;;;;28.80;4.45;;;;;;;;;;4992431;28;20025;-96
2022/12/31 06:58:31;;;;;;;26.10;3.75;;;;;;;;;;4992537;28;20038;-96
2022/12/31 07:01:15;;;;;;;31.05;5.00;;;;;;;;;;4992589;28;20022;-96
2022/12/31 07:03:45;;;;;;;28.27;4.78;;;;;;;;;;4993368;28;20034;-95
2022/12/31 07:06:24;;;;;;;30.58;4.22;;;;;;;;;;4992516;28;20479;-96
2022/12/31 07:09:00;;;;;;;34.35;5.20;;;;;;;;;;4992409;28;20026;-96
2022/12/31 07:11:31;;;;;;;34.08;5.20;;;;;;;;;;4992461;28;20025;-96
2022/12/31 07:13:56;;;;;;;28.95;5.13;;;;;;;;;;4993519;28;20022;-95
2022/12/31 07:16:54;;;;;;;32.15;5.93;;;;;;;;;;4993352;28;20142;-96
2022/12/31 07:19:44;;;;;;;25.30;3.83;;;;;;;;;;4993278;28;20504;-96
2022/12/31 07:22:19;;;;;;;25.77;5.47;;;;;;;;;;4992975;28;20503;-96
2022/12/31 07:25:06;;;;;;;;;;;;;;;;;;;;;
2022/12/31 07:27:52;;;;;;;17.33;2.63;;;;;;;;;;4994426;28;20103;-96
2022/12/31 07:30:19;;;;;;;24.05;3.67;;;;;;;;;;5001474;28;20042;-96
2022/12/31 07:33:03;;;;;;;36.53;4.65;;;;;;;;;;4992644;28;20034;-95
2022/12/31 07:35:28;;;;;;;23.48;4.63;;;;;;;;;;4992381;28;20029;-96
2022/12/31 07:38:06;;;;;;;26.48;4.10;;;;;;;;;;4992439;28;20022;-96
2022/12/31 07:40:37;;;;;;;24.52;3.28;;;;;;;;;;4992304;28;20109;-96
2022/12/31 07:43:21;;;;;;;16.08;2.97;;;;;;;;;;4992137;28;20023;-95
2022/12/31 07:45:49;;;;;;;25.08;2.88;;;;;;;;;;4991794;28;20023;-94
2022/12/31 07:48:25;;;;;;;23.98;3.72;;;;;;;;;;4992024;28;20065;-96
2022/12/31 07:50:53;;;;;;;23.35;3.65;;;;;;;;;;4992963;28;20022;-95
2022/12/31 07:53:18;;;;;;;31.25;5.13;;;;;;;;;;4992104;28;20389;-96
2022/12/31 07:55:44;;;;;;;26.08;4.35;;;;;;;;;;4992101;28;20090;-95
2022/12/31 07:58:21;;;;;;;21.65;3.42;;;;;;;;;;4991842;28;20369;-95
2022/12/31 08:00:46;;;;;;;24.67;4.85;;;;;;;;;;4992197;28;20022;-95
2022/12/31 08:03:12;;;;;;;19.70;3.30;;;;;;;;;;4995428;28;20022;-95
2022/12/31 08:05:46;;;;;;;26.17;4.07;;;;;;;;;;4995406;28;20117;-95
2022/12/31 08:08:30;;;;;;;28.42;4.05;;;;;;;;;;4995631;28;20026;-95
2022/12/31 08:11:11;;;;;;;21.25;3.85;;;;;;;;;;4996408;28;20117;-96
2022/12/31 08:13:37;;;;;;;25.08;4.13;;;;;;;;;;4995525;28;20065;-95
2022/12/31 08:16:03;;;;;;;29.48;4.28;;;;;;;;;;4996384;28;20057;-95
2022/12/31 08:18:28;;;;;;;26.13;3.30;;;;;;;;;;4997454;28;20022;-95
2022/12/31 08:21:08;;;;;;;21.60;3.97;;;;;;;;;;4995903;28;20027;-95
2022/12/31 08:23:42;;;;;;;28.42;3.38;;;;;;;;;;4995293;28;20022;-94
2022/12/31 08:26:43;;;;;;;23.85;3.13;;;;;;;;;;4994950;28;20050;-94
2022/12/31 08:29:14;;;;;;;20.67;3.20;;;;;;;;;;5013527;28;20037;-95
2022/12/31 08:31:55;;;;;;;22.27;4.22;;;;;;;;;;4997871;28;20045;-96
2022/12/31 08:34:26;;;;;;;29.08;4.45;;;;;;;;;;4995081;28;20030;-95
2022/12/31 08:37:01;;;;;;;25.23;3.38;;;;;;;;;;4994703;28;20022;-95
2022/12/31 08:39:47;;;;;;;26.35;4.30;;;;;;;;;;4994770;28;20058;-95
2022/12/31 08:42:22;;;;;;;25.58;3.92;;;;;;;;;;4994762;28;20030;-95
2022/12/31 08:44:55;;;;;;;24.58;3.33;;;;;;;;;;4994860;28;20015;-96
2022/12/31 08:47:28;;;;;;;36.25;5.18;;;;;;;;;;4994734;28;20045;-96
2022/12/31 08:49:54;;;;;;;23.13;3.38;;;;;;;;;;4994563;28;20018;-96
2022/12/31 08:52:23;;;;;;;19.83;3.35;;;;;;;;;;4994583;28;20132;-95
2022/12/31 08:54:49;;;;;;;24.67;3.85;;;;;;;;;;4994684;28;20023;-96
2022/12/31 08:57:34;;;;;;;25.13;4.07;;;;;;;;;;4994515;28;20029;-96
2022/12/31 08:59:59;;;;;;;26.42;4.80;;;;;;;;;;4994410;28;20018;-96
2022/12/31 09:02:40;;;;;;;43.67;5.45;;;;;;;;;;4995211;28;20476;-96
2022/12/31 09:05:23;;;;;;;38.07;6.10;;;;;;;;;;4994855;28;20018;-96
2022/12/31 09:08:02;;;;;;;43.30;6.32;;;;;;;;;;4994527;28;20026;-96
2022/12/31 09:10:33;;;;;;;59.05;8.77;;;;;;;;;;4994658;28;20026;-96
2022/12/31 09:13:20;;;;;;;47.03;7.75;;;;;;;;;;4993889;28;20034;-95
2022/12/31 09:16:04;;;;;;;42.80;6.75;;;;;;;;;;4994068;28;20058;-96
2022/12/31 09:18:33;;;;;;;39.42;6.57;;;;;;;;;;4994119;28;20022;-96
2022/12/31 09:20:58;;;;;;;42.58;6.65;;;;;;;;;;4994212;28;20030;-96
2022/12/31 09:23:24;;;;;;;41.00;7.55;;;;;;;;;;4994172;28;20019;-96
2022/12/31 09:26:18;;;;;;;39.03;7.25;;;;;;;;;;4995080;28;20032;-96
2022/12/31 09:29:14;;;;;;;37.42;6.57;;;;;;;;;;5011203;28;20088;-96
2022/12/31 09:32:21;;;;;;;35.47;5.65;;;;;;;;;;5003200;28;20034;-96
2022/12/31 09:35:09;;;;;;;;;;;;;;;;;;;;;
2022/12/31 09:37:50;;;;;;;38.58;5.85;;;;;;;;;;5002211;28;20529;-96
2022/12/31 09:40:28;;;;;;;29.70;4.68;;;;;;;;;;4998886;28;20506;-96
2022/12/31 09:42:59;;;;;;;34.22;5.10;;;;;;;;;;4994741;28;20030;-96
2022/12/31 09:46:18;;;;;;;33.17;6.03;;;;;;;;;;4995978;28;20037;-96
2022/12/31 09:48:58;;;;;;;28.45;4.35;;;;;;;;;;5003483;28;20026;-96
2022/12/31 09:51:31;;;;;;;38.45;4.55;;;;;;;;;;4997706;28;20118;-96
2022/12/31 09:54:02;;;;;;;27.25;4.07;;;;;;;;;;4997576;28;20038;-96
2022/12/31 09:56:46;;;;;;;25.30;3.90;;;;;;;;;;4998039;28;20069;-96
2022/12/31 09:59:16;;;;;;;27.27;4.43;;;;;;;;;;4994175;28;20081;-96
2022/12/31 10:01:45;;;;;;;27.25;3.80;;;;;;;;;;4994669;28;20010;-95
2022/12/31 10:04:19;;;;;;;35.88;5.78;;;;;;;;;;4993397;28;20034;-96
2022/12/31 10:06:45;;;;;;;34.58;5.68;;;;;;;;;;4993497;28;20023;-96
2022/12/31 10:09:16;;;;;;;32.80;4.55;;;;;;;;;;4993506;28;20026;-96
2022/12/31 10:11:42;;;;;;;;;;;;;;;;;;4993744;28;20029;-96
2022/12/31 10:14:26;;;;;;;22.97;3.63;;;;;;;;;;4992949;28;19907;-96
2022/12/31 10:17:12;;;;;;;33.88;5.93;;;;;;;;;;4993102;28;20057;-96
2022/12/31 10:20:04;;;;;;;36.65;5.05;;;;;;;;;;4993411;28;20022;-96
2022/12/31 10:22:44;;;;;;;37.92;5.70;;;;;;;;;;4994545;28;20104;-96
2022/12/31 10:25:09;;;;;;;38.55;6.00;;;;;;;;;;4993206;28;20038;-96
2022/12/31 10:27:35;;;;;;;33.63;4.57;;;;;;;;;;4993590;28;20019;-96
2022/12/31 10:39:50;;;;;;;21.77;4.55;;;;;;;;;;5020693;28;20026;-96
2022/12/31 10:42:18;;;;;;;25.60;3.05;;;;;;;;;;5013835;28;20034;-96
2022/12/31 10:45:05;;;;;;;19.20;2.85;;;;;;;;;;4999258;28;20058;-96
2022/12/31 10:47:49;;;;;;;26.63;3.80;;;;;;;;;;4993884;28;20014;-96
2022/12/31 10:50:33;;;;;;;21.23;2.88;;;;;;;;;;4994197;28;20527;-96
2022/12/31 10:53:01;;;;;;;21.05;3.80;;;;;;;;;;4993896;28;20026;-96
2022/12/31 10:55:29;;;;;;;21.95;3.25;;;;;;;;;;4993425;28;20018;-95
2022/12/31 10:58:13;;;;;;;21.67;3.22;;;;;;;;;;4993451;28;20022;-96
2022/12/31 11:00:53;;;;;;;14.40;1.98;;;;;;;;;;4993715;28;20018;-96
2022/12/31 11:03:22;;;;;;;19.80;3.13;;;;;;;;;;4994564;28;20014;-96
2022/12/31 11:06:03;;;;;;;18.73;2.47;;;;;;;;;;4993318;28;20046;-96
2022/12/31 11:08:55;;;;;;;20.98;3.00;;;;;;;;;;4996458;28;20026;-96
2022/12/31 11:12:17;;;;;;;23.42;3.53;;;;;;;;;;4995776;28;20026;-96
2022/12/31 11:14:53;;;;;;;18.23;2.97;;;;;;;;;;4997295;28;20033;-96
2022/12/31 11:17:39;;;;;;;20.75;2.95;;;;;;;;;;4995657;28;20026;-96
2022/12/31 11:20:24;;;;;;;22.35;3.25;;;;;;;;;;4994654;28;20022;-96
2022/12/31 11:22:55;;;;;;;28.75;4.65;;;;;;;;;;4993419;28;20120;-96
2022/12/31 11:28:32;;;;;;;25.70;3.40;;;;;;;;;;4996386;28;20037;-96
2022/12/31 11:31:13;;;;;;;20.92;3.35;;;;;;;;;;4997081;28;20026;-96
2022/12/31 11:36:57;;;;;;;22.02;3.13;;;;;;;;;;5159884;23;20082;-96
2022/12/31 11:58:19;;;;;;;18.98;3.03;;;;;;;;;;5007959;28;20022;-96
2022/12/31 12:01:12;;;;;;;21.25;4.50;;;;;;;;;;4986563;28;20062;-96
2022/12/31 12:04:03;;;;;;;19.77;3.13;;;;;;;;;;5008242;28;20019;-96
2022/12/31 12:06:32;;;;;;;32.85;4.38;;;;;;;;;;4997917;28;20481;-96
2022/12/31 12:09:08;;;;;;;30.15;4.50;;;;;;;;;;4999226;28;20054;-96
2022/12/31 12:11:36;;;;;;;34.35;4.55;;;;;;;;;;5002294;28;20049;-96
2022/12/31 12:17:12;;;;;;;31.25;4.75;;;;;;;;;;5003211;28;20026;-96
2022/12/31 12:19:41;;;;;;;27.98;3.60;;;;;;;;;;4999344;28;20033;-96
2022/12/31 12:22:21;;;;;;;30.95;5.60;;;;;;;;;;5001104;28;20055;-96
2022/12/31 12:24:52;;;;;;;35.97;3.95;;;;;;;;;;4998673;28;20108;-96
2022/12/31 12:27:27;;;;;;;24.27;4.80;;;;;;;;;;4996061;28;20033;-96
2022/12/31 12:29:53;;;;;;;20.48;2.85;;;;;;;;;;4995876;28;20022;-96
2022/12/31 12:32:20;;;;;;;17.40;2.25;;;;;;;;;;4998404;28;20052;-96
2022/12/31 12:34:45;;;;;;;26.17;3.13;;;;;;;;;;5002208;28;20375;-96
2022/12/31 12:37:25;;;;;;;12.60;2.10;;;;;;;;;;4996974;28;20125;-96
2022/12/31 12:39:54;;;;;;;13.98;2.45;;;;;;;;;;4996716;28;20025;-96
2022/12/31 12:42:20;;;;;;;19.77;2.75;;;;;;;;;;4995928;28;20109;-96
2022/12/31 12:44:45;;;;;;;13.35;1.52;;;;;;;;;;4999974;28;20052;-96
2022/12/31 12:47:14;;;;;;;8.80;1.70;;;;;;;;;;4995734;28;20023;-95
2022/12/31 12:49:47;;;;;;;7.45;1.40;;;;;;;;;;4997144;28;20023;-96
2022/12/31 12:52:12;;;;;;;6.10;1.00;;;;;;;;;;4996614;28;20033;-96
2022/12/31 12:54:59;;;;;;;5.43;1.00;;;;;;;;;;4995392;28;20027;-96
2022/12/31 12:57:24;;;;;;;6.57;0.93;;;;;;;;;;4994170;28;20088;-96
2022/12/31 12:59:53;;;;;;;12.38;1.10;;;;;;;;;;4994137;28;20489;-96
2022/12/31 13:02:23;;;;;;;6.32;0.90;;;;;;;;;;4994190;28;20022;-96
2022/12/31 13:04:54;;;;;;;5.60;0.60;;;;;;;;;;4993954;28;20098;-96
2022/12/31 13:07:19;;;;;;;4.15;0.52;;;;;;;;;;4994020;28;20388;-96
2022/12/31 13:10:03;;;;;;;13.98;0.60;;;;;;;;;;4994286;28;20037;-96
2022/12/31 13:12:28;;;;;;;5.70;0.88;;;;;;;;;;4994049;28;20153;-95
2022/12/31 13:15:09;;;;;;;4.90;1.00;;;;;;;;;;4994154;28;20640;-96
2022/12/31 13:17:48;;;;;;;5.28;0.50;;;;;;;;;;4999902;28;20019;-96
2022/12/31 13:20:32;;;;;;;2.05;0.47;;;;;;;;;;4994982;28;20022;-96
2022/12/31 13:23:02;;;;;;;2.10;1.10;;;;;;;;;;4995667;28;20126;-96
2022/12/31 13:25:48;;;;;;;0.88;0.40;;;;;;;;;;4994252;28;20453;-96
2022/12/31 13:28:15;;;;;;;4.63;0.52;;;;;;;;;;4993888;28;20026;-95
2022/12/31 13:30:43;;;;;;;1.45;0.68;;;;;;;;;;4994357;28;20388;-96
2022/12/31 13:33:17;;;;;;;3.20;0.40;;;;;;;;;;4994721;28;20037;-96
2022/12/31 13:35:55;;;;;;;3.63;0.43;;;;;;;;;;4993646;28;20381;-96
2022/12/31 13:38:23;;;;;;;1.45;0.25;;;;;;;;;;4993344;28;20018;-94
2022/12/31 13:40:53;;;;;;;0.93;0.20;;;;;;;;;;4993381;28;20018;-96
2022/12/31 13:43:27;;;;;;;3.55;0.52;;;;;;;;;;4993530;28;20027;-96
2022/12/31 13:45:59;;;;;;;4.50;0.52;;;;;;;;;;4994185;28;20018;-96
2022/12/31 13:48:29;;;;;;;1.55;0.20;;;;;;;;;;4994126;28;20432;-96
2022/12/31 13:50:59;;;;;;;1.80;0.30;;;;;;;;;;4994552;28;20028;-96
2022/12/31 13:53:54;;;;;;;3.05;0.47;;;;;;;;;;4994345;28;20046;-96
2022/12/31 13:56:24;;;;;;;1.27;0.20;;;;;;;;;;4963747;28;20477;-96
2022/12/31 13:58:52;;;;;;;1.70;0.30;;;;;;;;;;4993071;28;20026;-96
2022/12/31 14:01:36;;;;;;;1.15;0.35;;;;;;;;;;4993269;28;20022;-96
2022/12/31 14:04:20;;;;;;;2.45;0.30;;;;;;;;;;4994135;28;20054;-96
2022/12/31 14:06:52;;;;;;;0.68;0.45;;;;;;;;;;4994114;28;20484;-96
2022/12/31 14:09:25;;;;;;;1.23;0.50;;;;;;;;;;4993857;28;20049;-96
2022/12/31 14:12:17;;;;;;;6.25;1.02;;;;;;;;;;4993580;28;20070;-96
2022/12/31 14:14:54;;;;;;;2.45;0.30;;;;;;;;;;4993260;28;20026;-96
2022/12/31 14:17:46;;;;;;;1.10;0.30;;;;;;;;;;4994313;28;20069;-96
2022/12/31 14:20:11;;;;;;;3.45;0.60;;;;;;;;;;4986560;28;20034;-96
2022/12/31 14:22:37;;;;;;;3.45;0.40;;;;;;;;;;4993099;28;20033;-96
2022/12/31 14:25:08;;;;;;;2.92;0.40;;;;;;;;;;4993469;28;20033;-96
2022/12/31 14:27:36;;;;;;;1.20;0.22;;;;;;;;;;4993585;28;20010;-96
2022/12/31 14:30:05;;;;;;;0.65;0.30;;;;;;;;;;4993711;28;20026;-96
2022/12/31 14:32:34;;;;;;;1.42;0.22;;;;;;;;;;4993022;28;20060;-96
2022/12/31 14:35:17;;;;;;;0.70;0.30;;;;;;;;;;4992412;28;20025;-94
2022/12/31 14:37:52;;;;;;;0.55;0.20;;;;;;;;;;4992801;28;20088;-96
2022/12/31 14:40:43;;;;;;;1.92;0.40;;;;;;;;;;4992756;28;20121;-96
2022/12/31 14:43:09;;;;;;;2.83;0.30;;;;;;;;;;4984271;28;20032;-96
2022/12/31 14:45:37;;;;;;;0.20;0.17;;;;;;;;;;4992200;28;20117;-95
2022/12/31 14:48:02;;;;;;;4.22;0.35;;;;;;;;;;4992275;28;20108;-93
2022/12/31 14:50:29;;;;;;;3.40;0.22;;;;;;;;;;4992215;28;20113;-95
2022/12/31 14:53:05;;;;;;;2.45;0.20;;;;;;;;;;4992086;28;20096;-95
2022/12/31 14:55:30;;;;;;;0.40;0.10;;;;;;;;;;4992282;28;20022;-96
2022/12/31 14:57:56;;;;;;;0.32;0.22;;;;;;;;;;4992319;28;20105;-95
2022/12/31 15:00:38;;;;;;;1.48;0.22;;;;;;;;;;4992694;28;20026;-95
2022/12/31 15:03:04;;;;;;;0.05;0.05;;;;;;;;;;4992715;28;20480;-95
2022/12/31 15:05:31;;;;;;;0.20;0.10;;;;;;;;;;4993207;28;20027;-96
2022/12/31 15:08:04;;;;;;;0.80;0.20;;;;;;;;;;4993824;28;20030;-96
2022/12/31 15:10:41;;;;;;;1.33;0.10;;;;;;;;;;4997065;28;20018;-96
2022/12/31 15:13:07;;;;;;;0.45;0.10;;;;;;;;;;4998411;28;20089;-96
2022/12/31 15:15:32;;;;;;;0.75;0.20;;;;;;;;;;4996936;28;20361;-96
2022/12/31 15:18:10;;;;;;;0.75;0.20;;;;;;;;;;4997645;28;20539;-96
2022/12/31 15:20:40;;;;;;;0.85;0.20;;;;;;;;;;4997937;28;20037;-96
2022/12/31 15:23:32;;;;;;;1.20;0.30;;;;;;;;;;4997889;28;20038;-96
2022/12/31 15:25:58;;;;;;;1.35;0.40;;;;;;;;;;4993238;28;20034;-95
2022/12/31 15:28:27;;;;;;;3.17;0.80;;;;;;;;;;4997809;28;20026;-95
2022/12/31 15:30:53;;;;;;;3.55;0.88;;;;;;;;;;4999435;28;20477;-96
2022/12/31 15:33:18;;;;;;;8.43;1.42;;;;;;;;;;4996843;28;20544;-95
2022/12/31 15:35:52;;;;;;;6.60;1.05;;;;;;;;;;4996418;28;20121;-96
2022/12/31 15:38:28;;;;;;;13.80;1.67;;;;;;;;;;4982061;28;20384;-96
2022/12/31 15:40:53;;;;;;;9.30;1.98;;;;;;;;;;4996178;28;20041;-95
2022/12/31 15:43:38;;;;;;;11.10;2.38;;;;;;;;;;4996628;28;20520;-95
2022/12/31 15:46:08;;;;;;;12.82;2.33;;;;;;;;;;4996452;28;20030;-96
2022/12/31 15:48:43;;;;;;;23.92;2.97;;;;;;;;;;4997474;28;20023;-95
2022/12/31 15:51:14;;;;;;;14.40;2.63;;;;;;;;;;4996153;28;20042;-95
2022/12/31 15:53:41;;;;;;;11.50;2.00;;;;;;;;;;4995681;28;20034;-96
2022/12/31 15:56:11;;;;;;;10.32;1.40;;;;;;;;;;4995487;28;20035;-96
2022/12/31 15:58:37;;;;;;;11.15;2.40;;;;;;;;;;4996064;28;20027;-95
2022/12/31 16:01:08;;;;;;;5.45;1.60;;;;;;;;;;4996433;28;20045;-95
2022/12/31 16:03:34;;;;;;;13.02;1.65;;;;;;;;;;4995640;28;20105;-96
2022/12/31 16:06:00;;;;;;;10.07;1.58;;;;;;;;;;4995794;28;20057;-96
2022/12/31 16:08:29;;;;;;;5.60;0.98;;;;;;;;;;4995528;28;20084;-95
2022/12/31 16:10:54;;;;;;;8.40;1.10;;;;;;;;;;4995455;28;20476;-95
2022/12/31 16:13:21;;;;;;;6.15;0.88;;;;;;;;;;4995250;28;20128;-96
2022/12/31 16:15:51;;;;;;;10.32;7.63;;;;;;;;;;4995652;28;20022;-96
2022/12/31 16:18:17;;;;;;;5.43;2.17;;;;;;;;;;4996204;28;20037;-95
2022/12/31 16:20:46;;;;;;;25.02;19.90;;;;;;;;;;4995788;28;20027;-96
2022/12/31 16:23:22;;;;;;;13.00;8.63;;;;;;;;;;4994709;28;20085;-96
2022/12/31 16:25:48;;;;;;;8.07;2.90;;;;;;;;;;4996191;28;20109;-96
2022/12/31 16:28:20;;;;;;;9.13;2.13;;;;;;;;;;5004750;28;20029;-96
2022/12/31 16:30:45;;;;;;;;;;;;;;;;;;5002473;28;20015;-96
2022/12/31 16:33:19;;;;;;;47.37;42.70;;;;;;;;;;4996034;28;19914;-96
2022/12/31 16:35:53;;;;;;;12.15;7.53;;;;;;;;;;4996697;28;20296;-96
2022/12/31 16:38:19;;;;;;;27.63;24.35;;;;;;;;;;4996402;28;20033;-96
2022/12/31 16:40:59;;;;;;;25.33;17.67;;;;;;;;;;4996392;28;20381;-96
2022/12/31 16:43:45;;;;;;;6.57;1.90;;;;;;;;;;4998060;28;20054;-96
2022/12/31 16:46:25;;;;;;;5.07;1.60;;;;;;;;;;4996375;28;20045;-96
2022/12/31 16:49:08;;;;;;;4.97;1.13;;;;;;;;;;4997217;28;20014;-96
2022/12/31 16:51:36;;;;;;;6.03;1.00;;;;;;;;;;4995791;28;20034;-96
2022/12/31 16:54:01;;;;;;;3.70;0.73;;;;;;;;;;4995672;28;20030;-95
2022/12/31 16:56:35;;;;;;;3.08;0.70;;;;;;;;;;4995827;28;20029;-95
2022/12/31 16:59:06;;;;;;;3.90;0.65;;;;;;;;;;4994811;28;20022;-96
2022/12/31 17:01:32;;;;;;;3.03;1.40;;;;;;;;;;4994568;28;20076;-95
2022/12/31 17:03:59;;;;;;;5.03;1.00;;;;;;;;;;4994651;28;20022;-96
2022/12/31 17:06:27;;;;;;;1.92;0.50;;;;;;;;;;4994462;28;20022;-96
2022/12/31 17:08:54;;;;;;;3.08;1.10;;;;;;;;;;4995492;28;20514;-96
2022/12/31 17:11:38;;;;;;;6.38;0.88;;;;;;;;;;4994797;28;20019;-96
2022/12/31 17:14:07;;;;;;;7.18;1.77;;;;;;;;;;4995342;28;20030;-95
2022/12/31 17:16:36;;;;;;;8.43;1.20;;;;;;;;;;4994721;28;20014;-95
2022/12/31 17:19:02;;;;;;;5.38;1.65;;;;;;;;;;4994703;28;20023;-94
2022/12/31 17:21:28;;;;;;;3.72;0.95;;;;;;;;;;4994916;28;20044;-94
2022/12/31 17:23:55;;;;;;;6.10;2.13;;;;;;;;;;4993673;28;20022;-94
2022/12/31 17:26:25;;;;;;;7.30;1.52;;;;;;;;;;4994240;28;20108;-95
2022/12/31 17:28:52;;;;;;;8.68;2.28;;;;;;;;;;4994978;28;20024;-96
2022/12/31 17:31:28;;;;;;;9.35;3.00;;;;;;;;;;4997398;28;20034;-95
2022/12/31 17:34:03;;;;;;;9.48;3.13;;;;;;;;;;4996836;28;20046;-96
2022/12/31 17:36:28;;;;;;;9.90;4.47;;;;;;;;;;4996734;28;20022;-94
2022/12/31 17:38:54;;;;;;;13.73;3.10;;;;;;;;;;5003361;28;20366;-96
2022/12/31 17:41:24;;;;;;;11.18;5.63;;;;;;;;;;5002255;28;20022;-96
2022/12/31 17:43:52;;;;;;;18.55;5.28;;;;;;;;;;5000588;28;20506;-95